sensor_id;sensor_type;location;lat;lon;timestamp;pressure;altitude;pressure_sealevel;temperature;humidity
57574;BME280;68988;49.000;21.242;2023-04-27T00:00:42;98652.91;;;22.96;35.87
57574;BME280;68988;49.000;21.242;2023-04-27T00:03:07;98649.41;;;22.95;36.04
57574;BME280;68988;49.000;21.242;2023-04-27T00:05:34;98658.53;;;22.99;35.88
57574;BME280;68988;49.000;21.242;2023-04-27T00:08:00;98655.84;;;22.99;35.92
57574;BME280;68988;49.000;21.242;2023-04-27T00:10:25;98652.91;;;23.01;36.10
57574;BME280;68988;49.000;21.242;2023-04-27T00:12:51;98651.03;;;23.01;35.86
57574;BME280;68988;49.000;21.242;2023-04-27T00:15:16;98650.50;;;22.99;35.87
57574;BME280;68988;49.000;21.242;2023-04-27T00:17:41;98653.19;;;22.99;35.87
57574;BME280;68988;49.000;21.242;2023-04-27T00:20:08;98656.91;;;22.98;35.74
57574;BME280;68988;49.000;21.242;2023-04-27T00:22:36;98653.44;;;22.98;35.75
57574;BME280;68988;49.000;21.242;2023-04-27T00:25:02;98652.63;;;22.97;35.90
57574;BME280;68988;49.000;21.242;2023-04-27T00:27:27;98649.97;;;22.97;35.77
57574;BME280;68988;49.000;21.242;2023-04-27T00:29:53;98651.56;;;22.98;35.88
57574;BME280;68988;49.000;21.242;2023-04-27T00:32:18;98662.25;;;22.98;35.96
57574;BME280;68988;49.000;21.242;2023-04-27T00:34:43;98642.72;;;22.93;35.89
57574;BME280;68988;49.000;21.242;2023-04-27T00:37:09;98648.88;;;22.98;35.90
57574;BME280;68988;49.000;21.242;2023-04-27T00:39:35;98641.94;;;22.97;35.78
57574;BME280;68988;49.000;21.242;2023-04-27T00:42:00;98649.13;;;22.97;35.88
57574;BME280;68988;49.000;21.242;2023-04-27T00:44:26;98648.34;;;22.96;35.86
57574;BME280;68988;49.000;21.242;2023-04-27T00:46:52;98637.66;;;22.96;35.97
57574;BME280;68988;49.000;21.242;2023-04-27T00:49:21;98641.94;;;22.97;35.62
57574;BME280;68988;49.000;21.242;2023-04-27T00:51:47;98643.00;;;22.96;35.80
57574;BME280;68988;49.000;21.242;2023-04-27T00:54:18;98647.81;;;22.99;35.73
57574;BME280;68988;49.000;21.242;2023-04-27T00:56:46;98653.69;;;22.96;35.81
57574;BME280;68988;49.000;21.242;2023-04-27T00:59:12;98652.06;;;22.95;35.87
57574;BME280;68988;49.000;21.242;2023-04-27T01:01:37;98649.13;;;22.97;35.99
57574;BME280;68988;49.000;21.242;2023-04-27T01:04:03;98652.91;;;22.96;35.89
57574;BME280;68988;49.000;21.242;2023-04-27T01:06:28;98647.56;;;22.96;36.05
57574;BME280;68988;49.000;21.242;2023-04-27T01:08:54;98655.84;;;22.94;36.01
57574;BME280;68988;49.000;21.242;2023-04-27T01:11:20;98652.91;;;22.96;36.02
57574;BME280;68988;49.000;21.242;2023-04-27T01:13:45;98659.03;;;22.96;35.86
57574;BME280;68988;49.000;21.242;2023-04-27T01:16:11;98659.03;;;22.96;35.89
57574;BME280;68988;49.000;21.242;2023-04-27T01:18:36;98658.25;;;22.96;35.80
57574;BME280;68988;49.000;21.242;2023-04-27T01:21:02;98659.03;;;22.96;35.76
57574;BME280;68988;49.000;21.242;2023-04-27T01:23:27;98658.25;;;22.96;35.94
57574;BME280;68988;49.000;21.242;2023-04-27T01:25:53;98661.97;;;22.95;35.99
57574;BME280;68988;49.000;21.242;2023-04-27T01:28:18;98659.03;;;22.96;35.89
57574;BME280;68988;49.000;21.242;2023-04-27T01:30:43;98655.84;;;22.94;35.89
57574;BME280;68988;49.000;21.242;2023-04-27T01:33:09;98664.38;;;22.96;35.66
57574;BME280;68988;49.000;21.242;2023-04-27T01:35:35;98670.78;;;22.95;35.74
57574;BME280;68988;49.000;21.242;2023-04-27T01:38:00;98657.44;;;22.95;35.93
57574;BME280;68988;49.000;21.242;2023-04-27T01:40:26;98657.44;;;22.95;36.04
57574;BME280;68988;49.000;21.242;2023-04-27T01:42:52;98668.13;;;22.95;35.88
57574;BME280;68988;49.000;21.242;2023-04-27T01:45:17;98661.19;;;22.94;36.00
57574;BME280;68988;49.000;21.242;2023-04-27T01:47:43;98672.13;;;22.93;35.90
57574;BME280;68988;49.000;21.242;2023-04-27T01:50:08;98675.59;;;22.93;35.92
57574;BME280;68988;49.000;21.242;2023-04-27T01:52:34;98667.03;;;22.91;36.13
57574;BME280;68988;49.000;21.242;2023-04-27T01:54:59;98667.84;;;22.92;36.04
57574;BME280;68988;49.000;21.242;2023-04-27T01:57:25;98673.72;;;22.94;35.81
57574;BME280;68988;49.000;21.242;2023-04-27T01:59:50;98671.88;;;22.94;35.89
57574;BME280;68988;49.000;21.242;2023-04-27T02:02:16;98674.56;;;22.94;35.91
57574;BME280;68988;49.000;21.242;2023-04-27T02:04:41;98674.81;;;22.93;35.80
57574;BME280;68988;49.000;21.242;2023-04-27T02:07:07;98680.94;;;22.93;35.83
57574;BME280;68988;49.000;21.242;2023-04-27T02:09:33;98684.69;;;22.92;35.75
57574;BME280;68988;49.000;21.242;2023-04-27T02:11:58;98684.69;;;22.92;35.96
57574;BME280;68988;49.000;21.242;2023-04-27T02:14:24;98686.31;;;22.93;35.80
57574;BME280;68988;49.000;21.242;2023-04-27T02:16:49;98687.09;;;22.94;35.75
57574;BME280;68988;49.000;21.242;2023-04-27T02:19:14;98691.66;;;22.93;35.82
57574;BME280;68988;49.000;21.242;2023-04-27T02:21:40;98691.66;;;22.93;35.87
57574;BME280;68988;49.000;21.242;2023-04-27T02:24:05;98690.84;;;22.93;35.83
57574;BME280;68988;49.000;21.242;2023-04-27T02:26:31;98692.97;;;22.91;35.95
57574;BME280;68988;49.000;21.242;2023-04-27T02:28:57;98683.09;;;22.91;35.81
57574;BME280;68988;49.000;21.242;2023-04-27T02:31:22;98690.03;;;22.92;35.86
57574;BME280;68988;49.000;21.242;2023-04-27T02:33:47;98690.84;;;22.93;35.99
57574;BME280;68988;49.000;21.242;2023-04-27T02:36:13;98688.44;;;22.91;35.89
57574;BME280;68988;49.000;21.242;2023-04-27T02:38:38;98686.56;;;22.92;35.77
57574;BME280;68988;49.000;21.242;2023-04-27T02:41:04;98687.63;;;22.91;35.84
57574;BME280;68988;49.000;21.242;2023-04-27T02:43:29;98689.22;;;22.92;36.08
57574;BME280;68988;49.000;21.242;2023-04-27T02:45:55;98693.78;;;22.91;36.01
57574;BME280;68988;49.000;21.242;2023-04-27T02:48:20;98688.44;;;22.91;35.97
57574;BME280;68988;49.000;21.242;2023-04-27T02:50:45;98695.38;;;22.92;36.03
57574;BME280;68988;49.000;21.242;2023-04-27T02:53:11;98687.34;;;22.92;35.82
57574;BME280;68988;49.000;21.242;2023-04-27T02:55:37;98694.59;;;22.92;35.96
57574;BME280;68988;49.000;21.242;2023-04-27T02:58:03;98693.78;;;22.91;36.06
57574;BME280;68988;49.000;21.242;2023-04-27T03:00:28;98693.78;;;22.91;35.94
57574;BME280;68988;49.000;21.242;2023-04-27T03:02:54;98699.41;;;22.89;35.95
57574;BME280;68988;49.000;21.242;2023-04-27T03:05:20;98700.72;;;22.92;35.88
57574;BME280;68988;49.000;21.242;2023-04-27T03:07:45;98705.53;;;22.90;35.91
57574;BME280;68988;49.000;21.242;2023-04-27T03:10:11;98711.41;;;22.92;36.07
57574;BME280;68988;49.000;21.242;2023-04-27T03:12:36;98714.34;;;22.91;35.85
57574;BME280;68988;49.000;21.242;2023-04-27T03:15:02;98716.22;;;22.90;35.97
57574;BME280;68988;49.000;21.242;2023-04-27T03:17:28;98712.50;;;22.91;35.88
57574;BME280;68988;49.000;21.242;2023-04-27T03:19:53;98717.03;;;22.91;35.82
57574;BME280;68988;49.000;21.242;2023-04-27T03:22:19;98712.50;;;22.91;35.80
57574;BME280;68988;49.000;21.242;2023-04-27T03:24:44;98717.03;;;22.91;36.02
57574;BME280;68988;49.000;21.242;2023-04-27T03:27:10;98716.22;;;22.90;35.95
57574;BME280;68988;49.000;21.242;2023-04-27T03:29:36;98721.56;;;22.90;36.03
57574;BME280;68988;49.000;21.242;2023-04-27T03:32:02;98717.84;;;22.91;35.84
57574;BME280;68988;49.000;21.242;2023-04-27T03:34:28;98725.88;;;22.91;36.01
57574;BME280;68988;49.000;21.242;2023-04-27T03:36:54;98724.78;;;22.92;35.94
57574;BME280;68988;49.000;21.242;2023-04-27T03:39:20;98721.03;;;22.88;35.40
57574;BME280;68988;49.000;21.242;2023-04-27T03:41:45;98733.63;;;22.93;35.56
57574;BME280;68988;49.000;21.242;2023-04-27T03:44:11;98727.47;;;22.92;35.95
57574;BME280;68988;49.000;21.242;2023-04-27T03:46:36;98729.88;;;22.94;35.90
57574;BME280;68988;49.000;21.242;2023-04-27T03:49:01;98737.09;;;22.93;35.93
57574;BME280;68988;49.000;21.242;2023-04-27T03:51:27;98747.53;;;22.95;35.86
57574;BME280;68988;49.000;21.242;2023-04-27T03:53:54;98736.84;;;22.95;35.83
57574;BME280;68988;49.000;21.242;2023-04-27T03:56:19;98743.00;;;22.95;35.67
57574;BME280;68988;49.000;21.242;2023-04-27T03:58:44;98741.69;;;22.98;35.86
57574;BME280;68988;49.000;21.242;2023-04-27T04:01:10;98743.31;;;22.99;35.70
57574;BME280;68988;49.000;21.242;2023-04-27T04:03:36;98738.75;;;22.99;35.84
57574;BME280;68988;49.000;21.242;2023-04-27T04:06:01;98740.88;;;22.97;35.73
57574;BME280;68988;49.000;21.242;2023-04-27T04:08:28;98748.94;;;23.02;35.66
57574;BME280;68988;49.000;21.242;2023-04-27T04:10:55;98755.91;;;23.03;35.66
57574;BME280;68988;49.000;21.242;2023-04-27T04:13:20;98758.63;;;23.09;35.77
57574;BME280;68988;49.000;21.242;2023-04-27T04:15:46;98763.97;;;23.09;35.56
57574;BME280;68988;49.000;21.242;2023-04-27T04:18:11;98764.50;;;23.11;35.87
57574;BME280;68988;49.000;21.242;2023-04-27T04:20:37;98765.88;;;23.13;35.54
57574;BME280;68988;49.000;21.242;2023-04-27T04:23:03;98767.25;;;23.16;35.63
57574;BME280;68988;49.000;21.242;2023-04-27T04:25:28;98770.44;;;23.18;35.69
57574;BME280;68988;49.000;21.242;2023-04-27T04:27:54;98767.25;;;23.21;35.65
57574;BME280;68988;49.000;21.242;2023-04-27T04:30:20;98770.22;;;23.24;35.77
57574;BME280;68988;49.000;21.242;2023-04-27T04:32:47;98769.44;;;23.29;35.63
57574;BME280;68988;49.000;21.242;2023-04-27T04:35:12;98772.41;;;23.33;35.50
57574;BME280;68988;49.000;21.242;2023-04-27T04:37:38;98776.47;;;23.40;35.54
57574;BME280;68988;49.000;21.242;2023-04-27T04:40:05;98770.88;;;23.52;35.36
57574;BME280;68988;49.000;21.242;2023-04-27T04:42:37;98782.59;;;23.94;34.76
57574;BME280;68988;49.000;21.242;2023-04-27T04:45:03;98781.28;;;23.97;34.82
57574;BME280;68988;49.000;21.242;2023-04-27T04:47:29;98777.22;;;23.94;34.79
57574;BME280;68988;49.000;21.242;2023-04-27T04:49:58;98777.78;;;23.96;34.71
57574;BME280;68988;49.000;21.242;2023-04-27T04:52:23;98781.72;;;23.78;31.26
57574;BME280;68988;49.000;21.242;2023-04-27T04:54:52;98787.84;;;23.68;32.59
57574;BME280;68988;49.000;21.242;2023-04-27T04:57:17;98779.81;;;23.73;33.38
57574;BME280;68988;49.000;21.242;2023-04-27T04:59:43;98782.25;;;23.75;33.61
57574;BME280;68988;49.000;21.242;2023-04-27T05:02:08;98785.75;;;23.81;33.70
57574;BME280;68988;49.000;21.242;2023-04-27T05:04:34;98789.75;;;23.83;33.86
57574;BME280;68988;49.000;21.242;2023-04-27T05:06:59;98790.09;;;23.87;34.29
57574;BME280;68988;49.000;21.242;2023-04-27T05:09:24;98793.81;;;23.86;34.46
57574;BME280;68988;49.000;21.242;2023-04-27T05:11:50;98796.78;;;23.89;34.39
57574;BME280;68988;49.000;21.242;2023-04-27T05:14:15;98799.19;;;23.91;34.37
57574;BME280;68988;49.000;21.242;2023-04-27T05:16:41;98798.91;;;23.92;34.37
57574;BME280;68988;49.000;21.242;2023-04-27T05:19:06;98807.22;;;23.91;35.12
57574;BME280;68988;49.000;21.242;2023-04-27T05:21:32;98794.94;;;24.00;34.53
57574;BME280;68988;49.000;21.242;2023-04-27T05:23:58;98795.50;;;24.02;34.52
57574;BME280;68988;49.000;21.242;2023-04-27T05:26:23;98793.34;;;24.04;34.65
57574;BME280;68988;49.000;21.242;2023-04-27T05:28:48;98798.44;;;24.06;34.74
57574;BME280;68988;49.000;21.242;2023-04-27T05:31:14;98796.28;;;24.08;34.49
57574;BME280;68988;49.000;21.242;2023-04-27T05:33:39;98797.91;;;24.09;34.60
57574;BME280;68988;49.000;21.242;2023-04-27T05:36:05;98807.84;;;24.13;34.48
57574;BME280;68988;49.000;21.242;2023-04-27T05:38:30;98806.78;;;24.15;34.64
57574;BME280;68988;49.000;21.242;2023-04-27T05:40:57;98816.13;;;24.17;34.44
57574;BME280;68988;49.000;21.242;2023-04-27T05:43:24;98809.97;;;24.17;34.45
57574;BME280;68988;49.000;21.242;2023-04-27T05:45:50;98816.44;;;24.21;34.19
57574;BME280;68988;49.000;21.242;2023-04-27T05:48:16;98811.88;;;24.21;34.20
57574;BME280;68988;49.000;21.242;2023-04-27T05:50:42;98814.28;;;24.23;34.18
57574;BME280;68988;49.000;21.242;2023-04-27T05:53:07;98817.50;;;24.25;34.17
57574;BME280;68988;49.000;21.242;2023-04-27T05:55:32;98812.13;;;24.25;34.21
57574;BME280;68988;49.000;21.242;2023-04-27T05:57:58;98815.38;;;24.27;34.09
57574;BME280;68988;49.000;21.242;2023-04-27T06:00:23;98822.34;;;24.33;34.03
57574;BME280;68988;49.000;21.242;2023-04-27T06:02:49;98816.44;;;24.31;34.15
57574;BME280;68988;49.000;21.242;2023-04-27T06:05:15;98824.22;;;24.33;34.10
57574;BME280;68988;49.000;21.242;2023-04-27T06:07:41;98821.81;;;24.31;33.95
57574;BME280;68988;49.000;21.242;2023-04-27T06:10:08;98820.47;;;24.34;33.96
57574;BME280;68988;49.000;21.242;2023-04-27T06:12:34;98813.78;;;24.36;34.11
57574;BME280;68988;49.000;21.242;2023-04-27T06:14:59;98817.53;;;24.35;34.12
57574;BME280;68988;49.000;21.242;2023-04-27T06:17:27;98821.31;;;24.39;34.06
57574;BME280;68988;49.000;21.242;2023-04-27T06:19:52;98821.31;;;24.39;34.11
57574;BME280;68988;49.000;21.242;2023-04-27T06:22:18;98833.34;;;24.42;34.10
57574;BME280;68988;49.000;21.242;2023-04-27T06:24:43;98829.34;;;24.39;34.04
57574;BME280;68988;49.000;21.242;2023-04-27T06:27:08;98832.56;;;24.41;34.00
57574;BME280;68988;49.000;21.242;2023-04-27T06:29:34;98827.72;;;24.38;34.08
57574;BME280;68988;49.000;21.242;2023-04-27T06:31:59;98836.81;;;24.37;34.00
57574;BME280;68988;49.000;21.242;2023-04-27T06:34:25;98836.56;;;24.34;34.19
57574;BME280;68988;49.000;21.242;2023-04-27T06:36:51;98830.66;;;24.31;34.14
57574;BME280;68988;49.000;21.242;2023-04-27T06:39:16;98833.88;;;24.28;34.28
57574;BME280;68988;49.000;21.242;2023-04-27T06:41:41;98831.47;;;24.27;34.15
57574;BME280;68988;49.000;21.242;2023-04-27T06:44:07;98835.19;;;24.26;34.35
57574;BME280;68988;49.000;21.242;2023-04-27T06:46:32;98833.84;;;24.23;34.41
57574;BME280;68988;49.000;21.242;2023-04-27T06:48:58;98838.41;;;24.23;34.37
57574;BME280;68988;49.000;21.242;2023-04-27T06:51:23;98829.00;;;24.20;34.45
57574;BME280;68988;49.000;21.242;2023-04-27T06:53:49;98831.44;;;24.22;34.26
57574;BME280;68988;49.000;21.242;2023-04-27T06:56:14;98828.75;;;24.22;34.39
57574;BME280;68988;49.000;21.242;2023-04-27T06:58:39;98830.59;;;24.11;34.35
57574;BME280;68988;49.000;21.242;2023-04-27T07:01:05;98841.63;;;24.20;33.94
57574;BME280;68988;49.000;21.242;2023-04-27T07:03:33;98830.88;;;24.20;34.01
57574;BME280;68988;49.000;21.242;2023-04-27T07:05:59;98833.56;;;24.15;34.11
57574;BME280;68988;49.000;21.242;2023-04-27T07:08:24;98831.69;;;24.15;34.14
57574;BME280;68988;49.000;21.242;2023-04-27T07:10:50;98826.06;;;24.17;34.02
57574;BME280;68988;49.000;21.242;2023-04-27T07:13:15;98827.69;;;24.18;33.85
57574;BME280;68988;49.000;21.242;2023-04-27T07:15:41;98829.28;;;24.19;34.02
57574;BME280;68988;49.000;21.242;2023-04-27T07:18:06;98826.06;;;24.17;34.16
57574;BME280;68988;49.000;21.242;2023-04-27T07:20:32;98826.06;;;24.17;33.90
57574;BME280;68988;49.000;21.242;2023-04-27T07:22:57;98829.00;;;24.10;33.80
57574;BME280;68988;49.000;21.242;2023-04-27T07:25:23;98827.94;;;24.16;33.33
57574;BME280;68988;49.000;21.242;2023-04-27T07:27:48;98833.84;;;24.18;33.27
57574;BME280;68988;49.000;21.242;2023-04-27T07:30:13;98829.28;;;24.19;33.38
57574;BME280;68988;49.000;21.242;2023-04-27T07:32:40;98830.38;;;24.23;33.22
57574;BME280;68988;49.000;21.242;2023-04-27T07:35:08;98836.25;;;24.25;33.33
57574;BME280;68988;49.000;21.242;2023-04-27T07:37:34;98834.13;;;24.27;33.39
57574;BME280;68988;49.000;21.242;2023-04-27T07:40:02;98831.47;;;24.27;33.56
57574;BME280;68988;49.000;21.242;2023-04-27T07:42:30;98838.41;;;24.28;33.34
57574;BME280;68988;49.000;21.242;2023-04-27T07:44:55;98831.47;;;24.27;33.41
57574;BME280;68988;49.000;21.242;2023-04-27T07:47:21;98836.81;;;24.27;33.65
57574;BME280;68988;49.000;21.242;2023-04-27T07:49:46;98835.19;;;24.26;33.56
57574;BME280;68988;49.000;21.242;2023-04-27T07:52:12;98837.63;;;24.27;33.58
57574;BME280;68988;49.000;21.242;2023-04-27T07:54:38;98839.75;;;24.30;33.66
57574;BME280;68988;49.000;21.242;2023-04-27T07:57:08;98844.84;;;24.32;33.56
57574;BME280;68988;49.000;21.242;2023-04-27T07:59:35;98841.66;;;24.30;33.86
57574;BME280;68988;49.000;21.242;2023-04-27T08:02:01;98846.19;;;24.29;33.99
57574;BME280;68988;49.000;21.242;2023-04-27T08:04:26;98846.75;;;24.31;34.03
57574;BME280;68988;49.000;21.242;2023-04-27T08:06:52;98835.47;;;24.29;34.10
57574;BME280;68988;49.000;21.242;2023-04-27T08:09:17;98836.28;;;24.30;34.15
57574;BME280;68988;49.000;21.242;2023-04-27T08:11:42;98842.44;;;24.36;34.15
57574;BME280;68988;49.000;21.242;2023-04-27T08:14:08;98842.72;;;24.34;34.33
57574;BME280;68988;49.000;21.242;2023-04-27T08:16:39;98841.66;;;24.30;34.24
57574;BME280;68988;49.000;21.242;2023-04-27T08:19:05;98847.28;;;24.34;34.32
57574;BME280;68988;49.000;21.242;2023-04-27T08:21:30;98851.31;;;24.36;34.23
57574;BME280;68988;49.000;21.242;2023-04-27T08:23:57;98849.69;;;24.35;34.40
57574;BME280;68988;49.000;21.242;2023-04-27T08:26:22;98859.88;;;24.38;34.33
57574;BME280;68988;49.000;21.242;2023-04-27T08:28:48;98861.50;;;24.39;34.33
57574;BME280;68988;49.000;21.242;2023-04-27T08:31:14;98851.31;;;24.36;34.75
57574;BME280;68988;49.000;21.242;2023-04-27T08:33:39;98853.72;;;24.38;34.56
57574;BME280;68988;49.000;21.242;2023-04-27T08:36:06;98850.78;;;24.39;34.63
57574;BME280;68988;49.000;21.242;2023-04-27T08:38:33;98854.25;;;24.40;34.75
57574;BME280;68988;49.000;21.242;2023-04-27T08:40:59;98860.97;;;24.42;34.68
57574;BME280;68988;49.000;21.242;2023-04-27T08:43:24;98858.81;;;24.44;34.73
57574;BME280;68988;49.000;21.242;2023-04-27T08:45:50;98864.19;;;24.44;34.93
57574;BME280;68988;49.000;21.242;2023-04-27T08:48:16;98862.84;;;24.47;34.90
57574;BME280;68988;49.000;21.242;2023-04-27T08:50:43;98864.44;;;24.48;35.15
57574;BME280;68988;49.000;21.242;2023-04-27T08:53:21;98856.13;;;24.49;35.21
57574;BME280;68988;49.000;21.242;2023-04-27T08:55:50;98859.09;;;24.48;35.03
57574;BME280;68988;49.000;21.242;2023-04-27T08:58:16;98858.28;;;24.47;35.60
57574;BME280;68988;49.000;21.242;2023-04-27T09:00:42;98859.09;;;24.48;35.40
57574;BME280;68988;49.000;21.242;2023-04-27T09:03:21;98853.50;;;24.55;35.70
57574;BME280;68988;49.000;21.242;2023-04-27T09:05:47;98854.25;;;24.45;35.67
57574;BME280;68988;49.000;21.242;2023-04-27T09:08:13;98851.34;;;24.52;35.56
57574;BME280;68988;49.000;21.242;2023-04-27T09:10:51;98859.38;;;24.57;35.48
57574;BME280;68988;49.000;21.242;2023-04-27T09:13:17;98848.66;;;24.52;35.50
57574;BME280;68988;49.000;21.242;2023-04-27T09:15:44;98851.59;;;24.50;35.71
57574;BME280;68988;49.000;21.242;2023-04-27T09:18:22;98849.97;;;24.54;35.65
57574;BME280;68988;49.000;21.242;2023-04-27T09:20:52;98846.50;;;24.54;35.71
57574;BME280;68988;49.000;21.242;2023-04-27T09:26:06;98835.78;;;24.48;35.85
57574;BME280;68988;49.000;21.242;2023-04-27T09:28:33;98842.78;;;24.55;35.90
57574;BME280;68988;49.000;21.242;2023-04-27T09:31:01;98842.25;;;24.58;35.92
57574;BME280;68988;49.000;21.242;2023-04-27T09:33:27;98843.06;;;24.58;36.04
57574;BME280;68988;49.000;21.242;2023-04-27T09:35:54;98841.44;;;24.57;36.18
57574;BME280;68988;49.000;21.242;2023-04-27T09:38:21;98836.63;;;24.59;36.10
57574;BME280;68988;49.000;21.242;2023-04-27T09:40:49;98841.72;;;24.61;36.18
57574;BME280;68988;49.000;21.242;2023-04-27T09:43:15;98847.09;;;24.61;36.15
57574;BME280;68988;49.000;21.242;2023-04-27T09:45:41;98843.59;;;24.60;36.45
57574;BME280;68988;49.000;21.242;2023-04-27T09:48:06;98838.75;;;24.57;36.30
57574;BME280;68988;49.000;21.242;2023-04-27T09:50:37;98843.31;;;24.52;34.77
57574;BME280;68988;49.000;21.242;2023-04-27T09:53:05;98834.97;;;24.48;34.88
57574;BME280;68988;49.000;21.242;2023-04-27T09:55:36;98842.22;;;24.53;34.76
57574;BME280;68988;49.000;21.242;2023-04-27T09:58:27;98836.09;;;24.57;34.73
57574;BME280;68988;49.000;21.242;2023-04-27T10:03:36;98820.22;;;24.56;34.82
57574;BME280;68988;49.000;21.242;2023-04-27T10:08:55;98827.22;;;24.52;34.53
57574;BME280;68988;49.000;21.242;2023-04-27T10:11:21;98827.75;;;24.54;34.58
57574;BME280;68988;49.000;21.242;2023-04-27T10:13:57;98828.06;;;24.62;34.22
57574;BME280;68988;49.000;21.242;2023-04-27T10:16:22;98817.03;;;24.48;34.75
57574;BME280;68988;49.000;21.242;2023-04-27T10:18:55;98821.31;;;24.55;34.69
57574;BME280;68988;49.000;21.242;2023-04-27T10:21:21;98823.44;;;24.53;34.64
57574;BME280;68988;49.000;21.242;2023-04-27T10:23:51;98822.13;;;24.55;34.87
57574;BME280;68988;49.000;21.242;2023-04-27T10:26:23;98812.19;;;24.56;35.32
57574;BME280;68988;49.000;21.242;2023-04-27T10:29:06;98811.41;;;24.60;34.61
57574;BME280;68988;49.000;21.242;2023-04-27T10:31:32;98808.19;;;24.53;35.19
57574;BME280;68988;49.000;21.242;2023-04-27T10:34:15;98815.72;;;24.61;35.21
57574;BME280;68988;49.000;21.242;2023-04-27T10:36:40;98818.13;;;24.58;35.22
57574;BME280;68988;49.000;21.242;2023-04-27T10:39:16;98812.78;;;24.63;35.27
57574;BME280;68988;49.000;21.242;2023-04-27T10:41:55;98817.34;;;24.62;35.37
57574;BME280;68988;49.000;21.242;2023-04-27T10:44:28;98819.75;;;24.64;35.61
57574;BME280;68988;49.000;21.242;2023-04-27T10:46:56;98809.56;;;24.61;35.65
57574;BME280;68988;49.000;21.242;2023-04-27T10:49:25;98814.91;;;24.61;35.75
57574;BME280;68988;49.000;21.242;2023-04-27T10:51:51;98807.41;;;24.58;35.69
57574;BME280;68988;49.000;21.242;2023-04-27T10:54:17;98803.09;;;24.62;35.65
57574;BME280;68988;49.000;21.242;2023-04-27T10:56:43;98817.59;;;24.66;35.76
57574;BME280;68988;49.000;21.242;2023-04-27T10:59:09;98813.84;;;24.67;35.73
57574;BME280;68988;49.000;21.242;2023-04-27T11:01:35;98815.97;;;24.65;36.03
57574;BME280;68988;49.000;21.242;2023-04-27T11:04:02;98811.69;;;24.69;35.94
57574;BME280;68988;49.000;21.242;2023-04-27T11:06:29;98813.56;;;24.74;36.07
57574;BME280;68988;49.000;21.242;2023-04-27T11:08:55;98805.78;;;24.77;36.44
57574;BME280;68988;49.000;21.242;2023-04-27T11:11:21;98805.25;;;24.75;36.11
57574;BME280;68988;49.000;21.242;2023-04-27T11:13:48;98809.00;;;24.74;36.53
57574;BME280;68988;49.000;21.242;2023-04-27T11:16:14;98803.66;;;24.74;36.63
57574;BME280;68988;49.000;21.242;2023-04-27T11:18:40;98802.59;;;24.75;36.63
57574;BME280;68988;49.000;21.242;2023-04-27T11:21:11;98806.88;;;24.76;36.55
57574;BME280;68988;49.000;21.242;2023-04-27T11:23:37;98807.69;;;24.77;36.48
57574;BME280;68988;49.000;21.242;2023-04-27T11:26:10;98809.81;;;24.80;36.66
57574;BME280;68988;49.000;21.242;2023-04-27T11:28:36;98803.66;;;24.74;37.02
57574;BME280;68988;49.000;21.242;2023-04-27T11:31:02;98806.06;;;24.76;36.80
57574;BME280;68988;49.000;21.242;2023-04-27T11:33:30;98806.31;;;24.74;36.69
57574;BME280;68988;49.000;21.242;2023-04-27T11:35:55;98802.03;;;24.78;36.91
57574;BME280;68988;49.000;21.242;2023-04-27T11:38:21;98804.72;;;24.78;36.71
57574;BME280;68988;49.000;21.242;2023-04-27T11:40:58;98801.25;;;24.83;36.97
57574;BME280;68988;49.000;21.242;2023-04-27T11:43:25;98796.94;;;24.77;37.21
57574;BME280;68988;49.000;21.242;2023-04-27T11:45:50;98795.63;;;24.79;37.00
57574;BME280;68988;49.000;21.242;2023-04-27T11:48:15;98804.72;;;24.78;37.16
57574;BME280;68988;49.000;21.242;2023-04-27T11:50:45;98799.88;;;24.80;36.95
57574;BME280;68988;49.000;21.242;2023-04-27T11:53:11;98798.31;;;24.79;36.92
57574;BME280;68988;49.000;21.242;2023-04-27T11:55:37;98796.16;;;24.76;37.45
57574;BME280;68988;49.000;21.242;2023-04-27T11:58:05;98802.03;;;24.78;37.11
57574;BME280;68988;49.000;21.242;2023-04-27T12:00:31;98800.69;;;24.76;37.54
57574;BME280;68988;49.000;21.242;2023-04-27T12:02:57;98797.22;;;24.80;37.12
57574;BME280;68988;49.000;21.242;2023-04-27T12:05:22;98796.41;;;24.80;37.40
57574;BME280;68988;49.000;21.242;2023-04-27T12:07:47;98809.28;;;24.73;36.87
57574;BME280;68988;49.000;21.242;2023-04-27T12:10:13;98805.53;;;24.74;36.89
57574;BME280;68988;49.000;21.242;2023-04-27T12:12:38;98807.69;;;24.77;36.72
57574;BME280;68988;49.000;21.242;2023-04-27T12:15:04;98812.78;;;24.73;36.98
57574;BME280;68988;49.000;21.242;2023-04-27T12:17:30;98809.84;;;24.75;36.45
57574;BME280;68988;49.000;21.242;2023-04-27T12:19:56;98807.97;;;24.70;35.64
57574;BME280;68988;49.000;21.242;2023-04-27T12:22:22;98800.97;;;24.74;35.61
57574;BME280;68988;49.000;21.242;2023-04-27T12:24:47;98802.06;;;24.73;36.00
57574;BME280;68988;49.000;21.242;2023-04-27T12:27:13;98804.47;;;24.75;36.30
57574;BME280;68988;49.000;21.242;2023-04-27T12:29:38;98806.88;;;24.76;36.44
57574;BME280;68988;49.000;21.242;2023-04-27T12:32:04;98799.91;;;24.75;36.51
57574;BME280;68988;49.000;21.242;2023-04-27T12:34:30;98797.75;;;24.77;36.47
57574;BME280;68988;49.000;21.242;2023-04-27T12:36:56;98804.72;;;24.78;36.63
57574;BME280;68988;49.000;21.242;2023-04-27T12:39:22;98807.94;;;24.80;36.40
57574;BME280;68988;49.000;21.242;2023-04-27T12:41:49;98810.09;;;24.78;36.65
57574;BME280;68988;49.000;21.242;2023-04-27T12:44:16;98803.66;;;24.74;37.19
57574;BME280;68988;49.000;21.242;2023-04-27T12:46:43;98803.38;;;24.71;37.39
57574;BME280;68988;49.000;21.242;2023-04-27T12:49:09;98808.22;;;24.69;37.34
57574;BME280;68988;49.000;21.242;2023-04-27T12:51:35;98816.78;;;24.71;37.88
57574;BME280;68988;49.000;21.242;2023-04-27T12:54:02;98810.63;;;24.70;37.44